createdAt,value
2019-02-27T00:00:54.146Z,8.77
2019-02-27T00:03:23.147Z,7.00
2019-02-27T00:05:52.768Z,7.63
2019-02-27T00:08:21.790Z,7.30
2019-02-27T00:10:51.345Z,7.57
2019-02-27T00:13:24.727Z,7.77
2019-02-27T00:15:50.859Z,8.00
2019-02-27T00:18:23.789Z,7.97
2019-02-27T00:20:50.930Z,7.83
2019-02-27T00:23:23.823Z,8.20
2019-02-27T00:25:50.723Z,8.90
2019-02-27T00:28:23.152Z,8.50
2019-02-27T00:30:50.453Z,8.73
2019-02-27T00:33:19.470Z,8.70
2019-02-27T00:35:50.132Z,9.00
2019-02-27T00:38:19.065Z,8.23
2019-02-27T00:40:48.283Z,7.53
2019-02-27T00:43:17.234Z,8.13
2019-02-27T00:45:46.369Z,8.07
2019-02-27T00:48:15.518Z,7.37
2019-02-27T00:50:44.361Z,7.23
2019-02-27T00:53:13.365Z,7.57
2019-02-27T00:55:42.298Z,7.77
2019-02-27T00:58:11.442Z,7.17
2019-02-27T01:00:40.743Z,7.87
2019-02-27T01:03:09.817Z,7.20
2019-02-27T01:05:40.914Z,7.43
2019-02-27T01:08:09.870Z,7.40
2019-02-27T01:10:38.797Z,7.20
2019-02-27T01:13:07.794Z,7.20
2019-02-27T01:15:36.730Z,6.40
2019-02-27T01:18:05.674Z,7.10
2019-02-27T01:20:34.834Z,6.37
2019-02-27T01:23:03.843Z,7.00
2019-02-27T01:25:33.134Z,7.27
2019-02-27T01:28:02.074Z,7.30
2019-02-27T01:30:30.923Z,6.53
2019-02-27T01:33:03.924Z,6.20
2019-02-27T01:35:30.502Z,7.00
2019-02-27T01:37:59.446Z,6.17
2019-02-27T01:40:28.370Z,7.30
2019-02-27T01:42:57.391Z,6.50
2019-02-27T01:45:26.377Z,6.80
2019-02-27T01:47:55.248Z,6.50
2019-02-27T01:50:35.421Z,6.50
2019-02-27T01:53:07.364Z,6.80
2019-02-27T01:55:35.752Z,7.20
2019-02-27T01:58:09.144Z,7.13
2019-02-27T02:00:35.748Z,6.60
2019-02-27T02:03:04.853Z,7.30
2019-02-27T02:05:34.094Z,7.00
2019-02-27T02:08:03.103Z,6.33
2019-02-27T02:10:32.013Z,5.90
2019-02-27T02:13:28.053Z,6.63
2019-02-27T02:16:27.897Z,5.93
2019-02-27T02:19:25.710Z,5.87
2019-02-27T02:22:31.997Z,7.30
2019-02-27T02:25:17.996Z,6.40
2019-02-27T02:28:28.469Z,6.70
2019-02-27T02:31:33.502Z,6.43
2019-02-27T02:34:43.338Z,5.47
2019-02-27T02:37:59.284Z,5.90
2019-02-27T02:40:54.721Z,6.97
2019-02-27T02:44:02.987Z,6.70
2019-02-27T02:47:28.207Z,6.47
2019-02-27T02:50:21.963Z,5.63
2019-02-27T02:53:15.950Z,6.10
2019-02-27T02:56:11.675Z,5.97
2019-02-27T02:59:24.261Z,6.80
2019-02-27T03:01:57.226Z,6.77
2019-02-27T03:04:52.587Z,6.20
2019-02-27T03:08:00.500Z,7.30
2019-02-27T03:11:02.850Z,7.07
2019-02-27T03:13:57.754Z,7.30
2019-02-27T03:17:05.300Z,7.23
2019-02-27T03:20:08.457Z,6.83
2019-02-27T03:23:15.590Z,6.53
2019-02-27T03:25:57.311Z,6.90
2019-02-27T03:29:02.518Z,7.17
2019-02-27T03:31:57.719Z,6.40
2019-02-27T03:35:01.355Z,6.77
2019-02-27T03:37:58.638Z,6.83
2019-02-27T03:41:22.725Z,7.40
2019-02-27T03:44:32.868Z,8.37
2019-02-27T03:47:24.366Z,7.87
2019-02-27T03:50:25.221Z,6.97
2019-02-27T03:53:11.727Z,6.67
2019-02-27T03:56:27.831Z,6.93
2019-02-27T03:59:32.652Z,7.67
2019-02-27T04:03:04.094Z,8.00
2019-02-27T04:06:02.414Z,6.53
2019-02-27T04:08:56.266Z,7.17
2019-02-27T04:11:25.695Z,7.10
2019-02-27T04:14:03.383Z,7.27
2019-02-27T04:16:29.264Z,6.80
2019-02-27T04:19:02.961Z,7.00
2019-02-27T04:21:29.019Z,6.53
2019-02-27T04:23:58.133Z,6.60
2019-02-27T04:26:27.311Z,6.60
2019-02-27T04:28:56.148Z,6.53
2019-02-27T04:31:29.579Z,7.87
2019-02-27T04:33:59.870Z,6.30
2019-02-27T04:36:26.334Z,6.87
2019-02-27T04:38:55.245Z,6.67
2019-02-27T04:41:24.099Z,6.20
2019-02-27T04:43:52.947Z,6.40
2019-02-27T04:46:22.453Z,6.10
2019-02-27T04:48:51.485Z,7.13
2019-02-27T04:51:20.651Z,6.77
2019-02-27T04:53:49.501Z,6.40
2019-02-27T04:56:23.063Z,6.80
2019-02-27T04:58:49.001Z,7.50
2019-02-27T05:01:18.262Z,7.70
2019-02-27T05:03:47.111Z,7.20
2019-02-27T05:06:15.980Z,7.70
2019-02-27T05:08:44.899Z,7.23
2019-02-27T05:11:14.164Z,9.00
2019-02-27T05:13:44.151Z,8.27
2019-02-27T05:16:14.106Z,7.20
2019-02-27T05:18:44.031Z,8.60
2019-02-27T05:21:12.952Z,7.80
2019-02-27T05:23:41.813Z,8.83
2019-02-27T05:26:10.757Z,6.80
2019-02-27T05:28:39.606Z,8.97
2019-02-27T05:31:08.658Z,7.60
2019-02-27T05:33:39.698Z,7.20
2019-02-27T05:36:08.990Z,8.70
2019-02-27T05:38:38.178Z,8.20
2019-02-27T05:41:07.122Z,7.80
2019-02-27T05:43:36.361Z,8.13
2019-02-27T05:46:05.329Z,9.67
2019-02-27T05:48:34.250Z,8.20
2019-02-27T05:51:04.921Z,8.03
2019-02-27T05:53:34.091Z,9.93
2019-02-27T05:56:03.445Z,9.70
2019-02-27T05:58:32.482Z,8.90
2019-02-27T06:01:02.080Z,9.17
2019-02-27T06:03:32.433Z,9.80
2019-02-27T06:06:01.330Z,8.83
2019-02-27T06:08:34.846Z,9.83
2019-02-27T06:11:01.058Z,10.20
2019-02-27T06:13:31.822Z,10.10
2019-02-27T06:16:03.824Z,8.40
2019-02-27T06:18:31.369Z,9.93
2019-02-27T06:21:00.492Z,11.00
2019-02-27T06:23:29.446Z,9.50
2019-02-27T06:25:59.465Z,10.37
2019-02-27T06:28:29.441Z,11.90
2019-02-27T06:31:02.482Z,12.00
2019-02-27T06:33:30.958Z,11.80
2019-02-27T06:35:59.911Z,12.73
2019-02-27T06:38:29.082Z,12.50
2019-02-27T06:40:59.421Z,12.30
2019-02-27T06:43:28.473Z,13.77
2019-02-27T06:45:57.328Z,11.40
2019-02-27T06:48:26.263Z,12.30
2019-02-27T06:50:55.598Z,12.17
2019-02-27T06:53:24.842Z,11.00
2019-02-27T06:55:53.748Z,11.60
2019-02-27T06:58:22.630Z,11.80
2019-02-27T07:00:51.858Z,11.53
2019-02-27T07:03:20.718Z,11.60
2019-02-27T07:05:49.851Z,11.13
2019-02-27T07:08:19.065Z,11.30
2019-02-27T07:10:48.654Z,12.03
2019-02-27T07:13:17.518Z,11.97
2019-02-27T07:15:48.304Z,12.30
2019-02-27T07:18:17.112Z,13.33
2019-02-27T07:20:45.959Z,13.10
2019-02-27T07:23:14.909Z,13.10
2019-02-27T07:25:43.747Z,11.93
2019-02-27T07:28:12.614Z,12.83
2019-02-27T07:30:42.472Z,12.57
2019-02-27T07:33:12.154Z,11.97
2019-02-27T07:35:41.066Z,12.23
2019-02-27T07:38:10.655Z,13.53
2019-02-27T07:40:42.795Z,12.23
2019-02-27T07:43:11.200Z,13.60
2019-02-27T07:45:42.760Z,12.27
2019-02-27T07:48:10.930Z,14.27
2019-02-27T07:50:39.778Z,12.60
2019-02-27T07:53:09.018Z,13.80
2019-02-27T07:55:37.873Z,12.47
2019-02-27T07:58:06.930Z,10.87
2019-02-27T08:00:35.846Z,11.67
2019-02-27T08:03:09.223Z,12.40
2019-02-27T08:05:36.554Z,10.77
2019-02-27T08:08:05.859Z,11.60
2019-02-27T08:10:36.978Z,10.40
2019-02-27T08:13:05.522Z,11.27
2019-02-27T08:15:34.979Z,10.63
2019-02-27T08:18:03.933Z,10.20
2019-02-27T08:20:33.125Z,11.47
2019-02-27T08:23:02.067Z,10.47
2019-02-27T08:25:31.190Z,12.57
2019-02-27T08:28:00.361Z,11.43
2019-02-27T08:30:29.385Z,11.90
2019-02-27T08:32:58.763Z,10.53
2019-02-27T08:35:27.629Z,10.73
2019-02-27T08:38:02.552Z,10.80
2019-02-27T08:40:27.887Z,10.13
2019-02-27T08:42:56.739Z,10.03
2019-02-27T08:45:27.064Z,8.73
2019-02-27T08:47:56.604Z,8.57
2019-02-27T08:50:26.008Z,8.67
2019-02-27T08:52:54.863Z,9.30
2019-02-27T08:55:24.300Z,8.90
2019-02-27T08:57:56.945Z,9.90
2019-02-27T09:00:24.851Z,8.80
2019-02-27T09:02:55.551Z,8.50
2019-02-27T09:05:24.734Z,8.00
2019-02-27T09:07:53.722Z,8.33
2019-02-27T09:10:23.185Z,7.00
2019-02-27T09:12:53.455Z,7.43
2019-02-27T09:15:22.698Z,8.80
2019-02-27T09:17:51.630Z,7.30
2019-02-27T09:20:21.161Z,8.07
2019-02-27T09:22:50.285Z,8.13
2019-02-27T09:25:23.774Z,8.63
2019-02-27T09:27:50.245Z,8.97
2019-02-27T09:30:19.216Z,8.77
2019-02-27T09:32:48.148Z,9.80
2019-02-27T09:35:17.089Z,9.63
2019-02-27T09:38:05.598Z,9.43
2019-02-27T09:40:38.641Z,9.50
2019-02-27T09:43:06.302Z,10.00
2019-02-27T09:45:35.591Z,9.93
2019-02-27T09:48:05.198Z,9.93
2019-02-27T09:50:38.793Z,11.03
2019-02-27T09:53:07.795Z,11.13
2019-02-27T09:55:36.826Z,10.90
2019-02-27T09:58:11.046Z,11.43
2019-02-27T10:00:42.965Z,11.93
2019-02-27T10:03:11.982Z,10.20
2019-02-27T10:05:41.034Z,11.07
2019-02-27T10:08:10.557Z,12.30
2019-02-27T10:10:39.570Z,11.80
2019-02-27T10:13:08.879Z,11.27
2019-02-27T10:15:37.842Z,13.87
2019-02-27T10:18:06.854Z,13.07
2019-02-27T10:20:37.292Z,12.10
2019-02-27T10:23:06.533Z,13.03
2019-02-27T10:25:35.857Z,13.03
2019-02-27T10:28:05.596Z,12.40
2019-02-27T10:30:34.617Z,14.23
2019-02-27T10:33:03.681Z,18.80
2019-02-27T10:35:34.752Z,13.40
2019-02-27T10:38:03.970Z,13.80
2019-02-27T10:40:32.998Z,12.30
2019-02-27T10:43:02.015Z,13.10
2019-02-27T10:45:30.965Z,12.43
2019-02-27T10:47:59.973Z,13.70
2019-02-27T10:50:29.610Z,16.57
2019-02-27T10:52:58.553Z,12.73
2019-02-27T10:55:27.504Z,14.10
2019-02-27T10:57:57.105Z,13.87
2019-02-27T11:00:29.162Z,13.30
2019-02-27T11:02:58.299Z,12.50
2019-02-27T11:05:28.277Z,13.00
2019-02-27T11:07:57.582Z,13.07
2019-02-27T11:10:26.814Z,12.63
2019-02-27T11:12:55.746Z,12.30
2019-02-27T11:15:25.261Z,10.87
2019-02-27T11:17:54.209Z,11.93
2019-02-27T11:20:24.684Z,11.03
2019-02-27T11:22:54.211Z,10.53
2019-02-27T11:25:23.585Z,11.53
2019-02-27T11:27:52.437Z,10.27
2019-02-27T11:30:24.207Z,11.33
2019-02-27T11:32:56.708Z,11.30
2019-02-27T11:35:25.248Z,11.17
2019-02-27T11:37:54.986Z,10.53
2019-02-27T11:40:24.146Z,10.10
2019-02-27T11:42:53.152Z,11.03
2019-02-27T11:45:24.611Z,12.10
2019-02-27T11:47:53.098Z,11.00
2019-02-27T11:50:22.102Z,11.13
2019-02-27T11:52:51.663Z,18.87
2019-02-27T11:55:21.089Z,11.73
2019-02-27T11:57:51.070Z,11.40
2019-02-27T12:00:26.079Z,10.63
2019-02-27T12:02:55.434Z,11.57
2019-02-27T12:05:24.530Z,10.47
2019-02-27T12:07:54.106Z,10.83
2019-02-27T12:10:24.797Z,11.73
2019-02-27T12:12:59.558Z,10.50
2019-02-27T12:15:24.878Z,11.27
2019-02-27T12:17:54.238Z,11.67
2019-02-27T12:20:23.564Z,11.30
2019-02-27T12:22:52.514Z,10.97
2019-02-27T12:25:26.751Z,11.20
2019-02-27T12:27:55.593Z,10.50
2019-02-27T12:30:24.946Z,11.27
2019-02-27T12:32:56.744Z,9.60
2019-02-27T12:35:27.072Z,11.03
2019-02-27T12:37:56.105Z,10.17
2019-02-27T12:40:26.021Z,10.00
2019-02-27T12:42:55.021Z,9.10
2019-02-27T12:45:25.837Z,9.33
2019-02-27T12:47:55.937Z,7.90
2019-02-27T12:50:26.874Z,9.30
2019-02-27T12:52:55.826Z,8.77
2019-02-27T12:55:25.239Z,7.93
2019-02-27T12:57:54.622Z,9.23
2019-02-27T13:00:25.892Z,9.50
2019-02-27T13:02:54.962Z,7.80
2019-02-27T13:05:26.281Z,8.23
2019-02-27T13:07:54.994Z,9.07
2019-02-27T13:10:23.941Z,8.90
2019-02-27T13:12:52.942Z,8.87
2019-02-27T13:15:22.727Z,9.70
2019-02-27T13:17:56.194Z,9.10
2019-02-27T13:20:24.640Z,9.33
2019-02-27T13:22:54.022Z,9.67
2019-02-27T13:25:24.091Z,10.10
2019-02-27T13:27:54.220Z,10.67
2019-02-27T13:30:23.317Z,10.43
2019-02-27T13:32:52.555Z,10.80
2019-02-27T13:35:23.228Z,11.03
2019-02-27T13:37:52.994Z,9.20
2019-02-27T13:40:22.034Z,10.47
2019-02-27T13:42:53.406Z,10.87
2019-02-27T13:45:24.413Z,9.20
2019-02-27T13:47:53.431Z,10.97
2019-02-27T13:50:25.682Z,9.60
2019-02-27T13:52:53.510Z,10.63
2019-02-27T13:55:23.120Z,10.00
2019-02-27T13:57:52.158Z,11.47
2019-02-27T14:00:28.890Z,10.73
2019-02-27T14:02:57.938Z,10.50
2019-02-27T14:05:29.297Z,11.30
2019-02-27T14:07:58.739Z,11.60
2019-02-27T14:10:28.882Z,10.30
2019-02-27T14:12:57.951Z,10.57
2019-02-27T14:15:28.228Z,9.90
2019-02-27T14:17:57.335Z,10.57
2019-02-27T14:20:27.379Z,9.93
2019-02-27T14:22:57.101Z,10.07
2019-02-27T14:25:31.060Z,9.17
2019-02-27T14:27:57.594Z,9.33
2019-02-27T14:30:32.006Z,9.90
2019-02-27T14:33:01.475Z,9.33
2019-02-27T14:35:35.313Z,8.67
2019-02-27T14:38:02.049Z,10.53
2019-02-27T14:40:31.426Z,10.20
2019-02-27T14:43:00.499Z,10.17
2019-02-27T14:45:30.234Z,10.00
2019-02-27T14:47:59.761Z,10.07
2019-02-27T14:50:33.610Z,8.70
2019-02-27T14:53:00.553Z,9.47
2019-02-27T14:55:30.043Z,11.17
2019-02-27T14:57:59.122Z,10.90
2019-02-27T15:00:30.113Z,9.87
2019-02-27T15:02:59.367Z,11.23
2019-02-27T15:05:28.272Z,10.47
2019-02-27T15:07:57.322Z,9.50
2019-02-27T15:10:26.911Z,10.33
2019-02-27T15:12:56.471Z,10.30
2019-02-27T15:15:27.966Z,10.00
2019-02-27T15:17:58.222Z,10.50
2019-02-27T15:20:27.550Z,10.13
2019-02-27T15:22:58.073Z,10.90
2019-02-27T15:25:27.770Z,11.30
2019-02-27T15:27:58.756Z,11.40
2019-02-27T15:30:28.743Z,11.83
2019-02-27T15:32:58.023Z,12.07
2019-02-27T15:35:28.382Z,10.83
2019-02-27T15:37:58.142Z,12.83
2019-02-27T15:40:29.640Z,14.40
2019-02-27T15:42:58.116Z,12.83
2019-02-27T15:45:27.682Z,13.13
2019-02-27T15:47:56.791Z,11.70
2019-02-27T15:50:25.927Z,13.07
2019-02-27T15:52:54.886Z,13.30
2019-02-27T15:55:24.219Z,13.70
2019-02-27T15:57:54.147Z,14.70
2019-02-27T16:00:23.566Z,14.23
2019-02-27T16:02:52.758Z,14.60
2019-02-27T16:05:22.594Z,13.07
2019-02-27T16:07:51.604Z,18.13
2019-02-27T16:10:22.120Z,15.83
2019-02-27T16:12:51.462Z,14.67
2019-02-27T16:15:21.133Z,14.27
2019-02-27T16:17:50.131Z,13.67
2019-02-27T16:20:19.725Z,13.67
2019-02-27T16:22:49.031Z,13.40
2019-02-27T16:25:20.039Z,14.30
2019-02-27T16:27:49.231Z,13.37
2019-02-27T16:30:23.141Z,14.53
2019-02-27T16:32:52.478Z,15.07
2019-02-27T16:35:21.637Z,16.47
2019-02-27T16:37:56.250Z,16.50
2019-02-27T16:40:21.807Z,15.70
2019-02-27T16:42:51.024Z,17.27
2019-02-27T16:45:22.456Z,16.47
2019-02-27T16:47:54.072Z,16.20
2019-02-27T16:50:25.502Z,15.07
2019-02-27T16:52:55.206Z,15.30
2019-02-27T16:55:25.238Z,16.93
2019-02-27T16:57:56.823Z,15.87
2019-02-27T17:00:27.787Z,17.87
2019-02-27T17:02:57.246Z,17.40
2019-02-27T17:05:26.598Z,17.37
2019-02-27T17:08:00.559Z,15.77
2019-02-27T17:10:29.358Z,16.30
2019-02-27T17:12:58.584Z,16.10
2019-02-27T17:15:28.310Z,16.97
2019-02-27T17:17:57.663Z,16.33
2019-02-27T17:20:26.561Z,15.40
2019-02-27T17:22:55.505Z,14.87
2019-02-27T17:25:29.023Z,14.97
2019-02-27T17:27:55.736Z,14.60
2019-02-27T17:30:30.083Z,14.37
2019-02-27T17:33:01.309Z,14.00
2019-02-27T17:35:30.242Z,12.77
2019-02-27T17:37:59.502Z,14.83
2019-02-27T17:40:29.337Z,13.80
2019-02-27T17:42:59.219Z,14.30
2019-02-27T17:45:29.635Z,14.27
2019-02-27T17:47:58.545Z,14.90
2019-02-27T17:50:30.940Z,15.20
2019-02-27T17:52:58.231Z,15.40
2019-02-27T17:55:27.457Z,15.20
2019-02-27T17:57:58.369Z,15.93
2019-02-27T18:00:35.028Z,15.50
2019-02-27T18:03:05.019Z,13.93
2019-02-27T18:05:35.141Z,15.20
2019-02-27T18:08:04.317Z,14.70
2019-02-27T18:10:37.224Z,14.80
2019-02-27T18:13:04.341Z,15.27
2019-02-27T18:15:33.366Z,15.30
2019-02-27T18:18:02.740Z,15.30
2019-02-27T18:20:32.370Z,13.57
2019-02-27T18:23:01.578Z,14.80
2019-02-27T18:25:30.590Z,14.47
2019-02-27T18:28:00.050Z,14.50
2019-02-27T18:30:29.014Z,14.83
2019-02-27T18:32:58.442Z,15.20
2019-02-27T18:35:29.565Z,13.60
2019-02-27T18:37:58.142Z,12.30
2019-02-27T18:40:27.137Z,12.80
2019-02-27T18:42:56.669Z,12.30
2019-02-27T18:45:25.892Z,12.67
2019-02-27T18:47:54.837Z,11.30
2019-02-27T18:50:24.716Z,9.90
2019-02-27T18:52:54.642Z,11.93
2019-02-27T18:55:23.572Z,13.27
2019-02-27T18:57:52.574Z,13.37
2019-02-27T19:00:22.079Z,11.03
2019-02-27T19:02:53.241Z,12.10
2019-02-27T19:05:22.339Z,11.90
2019-02-27T19:07:55.017Z,12.30
2019-02-27T19:10:22.169Z,12.93
2019-02-27T19:12:51.557Z,11.37
2019-02-27T19:15:22.090Z,10.83
2019-02-27T19:17:51.233Z,12.23
2019-02-27T19:20:24.899Z,13.37
2019-02-27T19:22:53.586Z,13.63
2019-02-27T19:25:22.934Z,12.90
2019-02-27T19:27:52.292Z,12.50
2019-02-27T19:30:21.427Z,12.77
2019-02-27T19:32:50.775Z,12.77
2019-02-27T19:35:21.677Z,13.30
2019-02-27T19:37:51.776Z,14.00
2019-02-27T19:40:21.096Z,13.50
2019-02-27T19:42:55.534Z,13.87
2019-02-27T19:45:24.856Z,13.90
2019-02-27T19:47:55.658Z,14.13
2019-02-27T19:50:46.374Z,14.60
2019-02-27T19:53:14.559Z,14.80
2019-02-27T19:55:43.755Z,15.10
2019-02-27T19:58:17.133Z,13.20
2019-02-27T20:00:48.532Z,14.00
2019-02-27T20:03:14.133Z,14.77
2019-02-27T20:05:43.325Z,14.60
2019-02-27T20:08:12.825Z,14.83
2019-02-27T20:10:44.069Z,13.13
2019-02-27T20:13:13.374Z,14.13
2019-02-27T20:15:45.759Z,13.70
2019-02-27T20:18:14.066Z,13.80
2019-02-27T20:20:44.502Z,13.30
2019-02-27T20:23:13.515Z,13.10
2019-02-27T20:25:44.221Z,14.43
2019-02-27T20:28:13.678Z,14.07
2019-02-27T20:30:43.043Z,14.90
2019-02-27T20:33:12.485Z,14.03
2019-02-27T20:35:41.833Z,14.97
2019-02-27T20:38:15.346Z,14.10
2019-02-27T20:40:42.106Z,14.33
2019-02-27T20:43:11.889Z,13.47
2019-02-27T20:45:42.825Z,13.20
2019-02-27T20:48:11.458Z,13.03
2019-02-27T20:50:42.134Z,15.47
2019-02-27T20:53:11.606Z,14.70
2019-02-27T20:55:40.805Z,15.27
2019-02-27T20:58:09.724Z,12.83
2019-02-27T21:00:39.004Z,12.77
2019-02-27T21:03:08.201Z,12.60
2019-02-27T21:05:41.009Z,12.83
2019-02-27T21:08:09.505Z,11.83
2019-02-27T21:10:39.066Z,13.97
2019-02-27T21:13:08.681Z,10.70
2019-02-27T21:15:37.866Z,12.60
2019-02-27T21:18:06.870Z,13.20
2019-02-27T21:20:35.793Z,12.43
2019-02-27T21:23:04.799Z,13.03
2019-02-27T21:25:33.713Z,20.20
2019-02-27T21:28:06.621Z,32.10
2019-02-27T21:30:33.299Z,20.10
2019-02-27T21:33:02.213Z,16.83
2019-02-27T21:35:31.455Z,17.17
2019-02-27T21:38:00.754Z,17.87
2019-02-27T21:40:29.771Z,19.43
2019-02-27T21:42:59.050Z,17.43
2019-02-27T21:45:28.046Z,17.47
2019-02-27T21:47:57.242Z,19.50
2019-02-27T21:50:26.238Z,18.43
2019-02-27T21:52:55.825Z,16.57
2019-02-27T21:55:25.023Z,15.33
2019-02-27T21:57:54.242Z,14.30
2019-02-27T22:00:24.244Z,14.80
2019-02-27T22:02:53.580Z,15.40
2019-02-27T22:05:22.870Z,14.10
2019-02-27T22:07:51.838Z,12.53
2019-02-27T22:10:20.853Z,11.83
2019-02-27T22:12:50.435Z,12.47
2019-02-27T22:15:24.746Z,12.10
2019-02-27T22:17:53.969Z,12.93
2019-02-27T22:20:25.796Z,12.20
2019-02-27T22:22:53.883Z,12.50
2019-02-27T22:25:22.844Z,13.00
2019-02-27T22:27:51.850Z,14.03
2019-02-27T22:30:20.873Z,16.57
2019-02-27T22:32:49.862Z,14.40
2019-02-27T22:35:18.866Z,15.47
2019-02-27T22:37:51.102Z,13.33
2019-02-27T22:40:18.630Z,13.40
2019-02-27T22:42:48.613Z,12.67
2019-02-27T22:45:18.397Z,13.37
2019-02-27T22:47:47.834Z,13.07
2019-02-27T22:50:16.892Z,13.27
2019-02-27T22:52:45.877Z,11.10
2019-02-27T22:55:15.461Z,10.63
2019-02-27T22:57:45.395Z,11.63
2019-02-27T23:00:57.852Z,9.67
2019-02-27T23:03:27.901Z,9.83
2019-02-27T23:05:56.832Z,9.63
2019-02-27T23:08:26.069Z,9.53
2019-02-27T23:10:55.066Z,10.30
2019-02-27T23:13:24.457Z,10.10
2019-02-27T23:15:58.032Z,10.33
2019-02-27T23:18:24.169Z,9.13
2019-02-27T23:20:55.420Z,10.27
2019-02-27T23:23:24.527Z,8.77
2019-02-27T23:25:53.513Z,7.67
2019-02-27T23:28:22.618Z,10.73
2019-02-27T23:30:51.628Z,9.27
2019-02-27T23:33:20.811Z,9.73
2019-02-27T23:35:50.825Z,10.57
2019-02-27T23:38:20.430Z,9.93
2019-02-27T23:40:50.154Z,9.30
2019-02-27T23:43:19.791Z,8.70
2019-02-27T23:45:48.881Z,9.20
2019-02-27T23:48:17.886Z,9.70
2019-02-27T23:50:46.807Z,8.90
2019-02-27T23:53:15.730Z,7.70
2019-02-27T23:55:45.534Z,7.90
2019-02-27T23:58:14.506Z,8.27
